sensor_id;sensor_type;location;lat;lon;timestamp;pressure;altitude;pressure_sealevel;temperature;humidity
32131;BME280;18639;50.716;7.086;2022-12-11T00:00:20;99949.50;;;1.01;100.00
32131;BME280;18639;50.716;7.086;2022-12-11T00:02:45;99960.34;;;1.06;100.00
32131;BME280;18639;50.716;7.086;2022-12-11T00:05:11;99975.31;;;1.15;100.00
32131;BME280;18639;50.716;7.086;2022-12-11T00:07:36;99970.41;;;1.09;100.00
32131;BME280;18639;50.716;7.086;2022-12-11T00:10:02;99965.31;;;1.09;100.00
32131;BME280;18639;50.716;7.086;2022-12-11T00:12:29;99928.34;;;0.73;100.00
32131;BME280;18639;50.716;7.086;2022-12-11T00:14:54;99922.81;;;0.87;100.00
32131;BME280;18639;50.716;7.086;2022-12-11T00:17:20;99853.13;;;0.39;100.00
32131;BME280;18639;50.716;7.086;2022-12-11T00:19:45;99974.28;;;1.21;100.00
32131;BME280;18639;50.716;7.086;2022-12-11T00:22:11;99955.53;;;0.97;100.00
32131;BME280;18639;50.716;7.086;2022-12-11T00:24:36;99946.03;;;1.02;100.00
32131;BME280;18639;50.716;7.086;2022-12-11T00:27:02;99984.47;;;1.21;100.00
32131;BME280;18639;50.716;7.086;2022-12-11T00:29:29;99872.09;;;0.56;100.00
32131;BME280;18639;50.716;7.086;2022-12-11T00:31:54;99984.34;;;1.24;100.00
32131;BME280;18639;50.716;7.086;2022-12-11T00:34:20;99970.72;;;1.26;100.00
32131;BME280;18639;50.716;7.086;2022-12-11T00:36:45;99893.84;;;0.64;100.00
32131;BME280;18639;50.716;7.086;2022-12-11T00:39:10;99962.38;;;1.21;100.00
32131;BME280;18639;50.716;7.086;2022-12-11T00:41:36;99943.09;;;1.14;100.00
32131;BME280;18639;50.716;7.086;2022-12-11T00:44:01;99958.03;;;1.25;100.00
32131;BME280;18639;50.716;7.086;2022-12-11T00:46:26;99959.41;;;1.34;100.00
32131;BME280;18639;50.716;7.086;2022-12-11T00:48:52;99935.41;;;1.17;100.00
32131;BME280;18639;50.716;7.086;2022-12-11T00:51:17;99964.28;;;1.41;100.00
32131;BME280;18639;50.716;7.086;2022-12-11T00:53:43;99954.44;;;1.31;100.00
32131;BME280;18639;50.716;7.086;2022-12-11T00:56:14;99982.81;;;1.45;100.00
32131;BME280;18639;50.716;7.086;2022-12-11T00:58:41;99967.59;;;1.43;100.00
32131;BME280;18639;50.716;7.086;2022-12-11T01:01:08;99968.38;;;1.45;100.00
32131;BME280;18639;50.716;7.086;2022-12-11T01:03:35;99959.41;;;1.34;100.00
32131;BME280;18639;50.716;7.086;2022-12-11T01:06:01;99939.38;;;1.24;100.00
32131;BME280;18639;50.716;7.086;2022-12-11T01:08:26;99919.22;;;1.18;100.00
32131;BME280;18639;50.716;7.086;2022-12-11T01:11:00;99953.53;;;1.33;100.00
32131;BME280;18639;50.716;7.086;2022-12-11T01:13:25;99978.38;;;1.50;100.00
32131;BME280;18639;50.716;7.086;2022-12-11T01:15:51;99978.63;;;1.44;100.00
32131;BME280;18639;50.716;7.086;2022-12-11T01:18:16;99940.84;;;1.32;100.00
32131;BME280;18639;50.716;7.086;2022-12-11T01:20:42;99959.69;;;1.51;100.00
32131;BME280;18639;50.716;7.086;2022-12-11T01:23:07;99937.44;;;1.33;100.00
32131;BME280;18639;50.716;7.086;2022-12-11T01:25:34;99955.72;;;1.44;100.00
32131;BME280;18639;50.716;7.086;2022-12-11T01:28:02;99946.38;;;1.44;100.00
32131;BME280;18639;50.716;7.086;2022-12-11T01:30:28;99910.56;;;1.24;100.00
32131;BME280;18639;50.716;7.086;2022-12-11T01:32:53;99924.78;;;1.30;100.00
32131;BME280;18639;50.716;7.086;2022-12-11T01:35:19;99947.97;;;1.47;100.00
32131;BME280;18639;50.716;7.086;2022-12-11T01:37:45;99947.16;;;1.45;100.00
32131;BME280;18639;50.716;7.086;2022-12-11T01:40:15;99957.06;;;1.54;100.00
32131;BME280;18639;50.716;7.086;2022-12-11T01:42:41;99952.06;;;1.51;100.00
32131;BME280;18639;50.716;7.086;2022-12-11T01:45:29;99942.00;;;1.48;100.00
32131;BME280;18639;50.716;7.086;2022-12-11T01:48:07;99953.53;;;1.58;100.00
32131;BME280;18639;50.716;7.086;2022-12-11T01:50:38;99960.16;;;1.62;100.00
32131;BME280;18639;50.716;7.086;2022-12-11T01:53:07;99935.94;;;1.50;100.00
32131;BME280;18639;50.716;7.086;2022-12-11T01:55:36;99950.81;;;1.62;100.00
32131;BME280;18639;50.716;7.086;2022-12-11T01:58:03;99960.91;;;1.65;100.00
32131;BME280;18639;50.716;7.086;2022-12-11T02:00:29;99954.16;;;1.64;100.00
32131;BME280;18639;50.716;7.086;2022-12-11T02:02:54;99942.53;;;1.56;100.00
32131;BME280;18639;50.716;7.086;2022-12-11T02:05:19;99955.91;;;1.62;100.00
32131;BME280;18639;50.716;7.086;2022-12-11T02:07:48;99931.81;;;1.48;100.00
32131;BME280;18639;50.716;7.086;2022-12-11T02:10:15;99924.19;;;1.48;100.00
32131;BME280;18639;50.716;7.086;2022-12-11T02:13:03;99934.00;;;1.58;100.00
32131;BME280;18639;50.716;7.086;2022-12-11T02:15:40;99931.50;;;1.57;100.00
32131;BME280;18639;50.716;7.086;2022-12-11T02:18:24;99934.66;;;1.63;100.00
32131;BME280;18639;50.716;7.086;2022-12-11T02:21:05;99944.56;;;1.71;100.00
32131;BME280;18639;50.716;7.086;2022-12-11T02:23:46;99940.25;;;1.73;100.00
32131;BME280;18639;50.716;7.086;2022-12-11T02:26:59;99937.72;;;1.73;100.00
32131;BME280;18639;50.716;7.086;2022-12-11T02:29:22;99926.13;;;1.64;100.00
32131;BME280;18639;50.716;7.086;2022-12-11T02:31:55;99945.38;;;1.72;100.00
32131;BME280;18639;50.716;7.086;2022-12-11T02:34:36;99931.91;;;1.69;100.00
32131;BME280;18639;50.716;7.086;2022-12-11T02:37:11;99931.06;;;1.69;100.00
32131;BME280;18639;50.716;7.086;2022-12-11T02:39:40;99951.16;;;1.77;100.00
32131;BME280;18639;50.716;7.086;2022-12-11T02:42:08;99901.31;;;1.46;100.00
32131;BME280;18639;50.716;7.086;2022-12-11T02:44:35;99938.38;;;1.78;100.00
32131;BME280;18639;50.716;7.086;2022-12-11T02:47:06;99922.47;;;1.72;100.00
32131;BME280;18639;50.716;7.086;2022-12-11T02:49:32;99934.91;;;1.81;100.00
32131;BME280;18639;50.716;7.086;2022-12-11T02:51:59;99907.31;;;1.68;100.00
32131;BME280;18639;50.716;7.086;2022-12-11T02:54:29;99928.97;;;1.80;100.00
32131;BME280;18639;50.716;7.086;2022-12-11T02:57:02;99919.00;;;1.74;100.00
32131;BME280;18639;50.716;7.086;2022-12-11T02:59:48;99894.13;;;1.57;100.00
32131;BME280;18639;50.716;7.086;2022-12-11T03:02:15;99925.63;;;1.78;100.00
32131;BME280;18639;50.716;7.086;2022-12-11T03:04:41;99927.31;;;1.79;100.00
32131;BME280;18639;50.716;7.086;2022-12-11T03:07:14;99846.22;;;1.20;100.00
32131;BME280;18639;50.716;7.086;2022-12-11T03:09:43;99899.19;;;1.59;100.00
32131;BME280;18639;50.716;7.086;2022-12-11T03:12:11;99890.88;;;1.54;100.00
32131;BME280;18639;50.716;7.086;2022-12-11T03:14:39;99921.81;;;1.66;100.00
32131;BME280;18639;50.716;7.086;2022-12-11T03:17:13;99926.53;;;1.77;100.00
32131;BME280;18639;50.716;7.086;2022-12-11T03:19:49;99922.22;;;1.79;100.00
32131;BME280;18639;50.716;7.086;2022-12-11T03:22:39;99923.88;;;1.80;100.00
32131;BME280;18639;50.716;7.086;2022-12-11T03:25:20;99938.34;;;1.80;100.00
32131;BME280;18639;50.716;7.086;2022-12-11T03:28:06;99875.13;;;1.43;100.00
32131;BME280;18639;50.716;7.086;2022-12-11T03:30:35;99902.34;;;1.65;100.00
32131;BME280;18639;50.716;7.086;2022-12-11T03:33:08;99901.44;;;1.66;100.00
32131;BME280;18639;50.716;7.086;2022-12-11T03:35:50;99929.72;;;1.82;100.00
32131;BME280;18639;50.716;7.086;2022-12-11T03:38:22;99933.31;;;1.77;100.00
32131;BME280;18639;50.716;7.086;2022-12-11T03:40:51;99874.97;;;1.47;100.00
32131;BME280;18639;50.716;7.086;2022-12-11T03:43:19;99875.03;;;1.46;100.00
32131;BME280;18639;50.716;7.086;2022-12-11T03:45:46;99925.03;;;1.72;100.00
32131;BME280;18639;50.716;7.086;2022-12-11T03:48:15;99900.09;;;1.56;100.00
32131;BME280;18639;50.716;7.086;2022-12-11T03:50:41;99904.28;;;1.59;100.00
32131;BME280;18639;50.716;7.086;2022-12-11T03:53:08;99941.53;;;1.85;100.00
32131;BME280;18639;50.716;7.086;2022-12-11T03:55:35;99933.94;;;1.83;100.00
32131;BME280;18639;50.716;7.086;2022-12-11T03:58:01;99855.78;;;1.39;100.00
32131;BME280;18639;50.716;7.086;2022-12-11T04:00:27;99908.03;;;1.72;100.00
32131;BME280;18639;50.716;7.086;2022-12-11T04:02:53;99887.31;;;1.58;100.00
32131;BME280;18639;50.716;7.086;2022-12-11T04:05:38;99910.41;;;1.77;100.00
32131;BME280;18639;50.716;7.086;2022-12-11T04:08:04;99889.50;;;1.68;100.00
32131;BME280;18639;50.716;7.086;2022-12-11T04:10:29;99892.81;;;1.71;100.00
32131;BME280;18639;50.716;7.086;2022-12-11T04:12:55;99906.16;;;1.77;100.00
32131;BME280;18639;50.716;7.086;2022-12-11T04:15:20;99911.91;;;1.82;100.00
32131;BME280;18639;50.716;7.086;2022-12-11T04:17:45;99888.78;;;1.65;100.00
32131;BME280;18639;50.716;7.086;2022-12-11T04:20:29;99911.84;;;1.84;100.00
32131;BME280;18639;50.716;7.086;2022-12-11T04:23:16;99908.53;;;1.82;100.00
32131;BME280;18639;50.716;7.086;2022-12-11T04:26:08;99910.97;;;1.85;100.00
32131;BME280;18639;50.716;7.086;2022-12-11T04:28:34;99891.03;;;1.73;100.00
32131;BME280;18639;50.716;7.086;2022-12-11T04:30:59;99867.09;;;1.55;100.00
32131;BME280;18639;50.716;7.086;2022-12-11T04:33:25;99888.66;;;1.68;100.00
32131;BME280;18639;50.716;7.086;2022-12-11T04:35:50;99894.59;;;1.68;100.00
32131;BME280;18639;50.716;7.086;2022-12-11T04:38:15;99869.72;;;1.52;100.00
32131;BME280;18639;50.716;7.086;2022-12-11T04:40:41;99911.91;;;1.82;100.00
32131;BME280;18639;50.716;7.086;2022-12-11T04:43:06;99828.66;;;1.38;100.00
32131;BME280;18639;50.716;7.086;2022-12-11T04:45:31;99907.56;;;1.86;100.00
32131;BME280;18639;50.716;7.086;2022-12-11T04:47:57;99903.38;;;1.83;100.00
32131;BME280;18639;50.716;7.086;2022-12-11T04:50:23;99908.31;;;1.88;100.00
32131;BME280;18639;50.716;7.086;2022-12-11T04:52:49;99905.06;;;1.84;100.00
32131;BME280;18639;50.716;7.086;2022-12-11T04:55:14;99864.19;;;1.64;100.00
32131;BME280;18639;50.716;7.086;2022-12-11T04:57:39;99904.25;;;1.82;100.00
32131;BME280;18639;50.716;7.086;2022-12-11T05:00:07;99906.59;;;1.88;100.00
32131;BME280;18639;50.716;7.086;2022-12-11T05:02:34;99908.31;;;1.88;100.00
32131;BME280;18639;50.716;7.086;2022-12-11T05:05:01;99865.41;;;1.54;100.00
32131;BME280;18639;50.716;7.086;2022-12-11T05:07:27;99908.38;;;1.86;100.00
32131;BME280;18639;50.716;7.086;2022-12-11T05:09:52;99835.09;;;1.48;100.00
32131;BME280;18639;50.716;7.086;2022-12-11T05:12:18;99881.63;;;1.75;100.00
32131;BME280;18639;50.716;7.086;2022-12-11T05:14:43;99854.91;;;1.63;100.00
32131;BME280;18639;50.716;7.086;2022-12-11T05:17:08;99867.13;;;1.77;100.00
32131;BME280;18639;50.716;7.086;2022-12-11T05:19:34;99819.91;;;1.45;100.00
32131;BME280;18639;50.716;7.086;2022-12-11T05:21:59;99852.41;;;1.61;100.00
32131;BME280;18639;50.716;7.086;2022-12-11T05:24:24;99848.25;;;1.59;100.00
32131;BME280;18639;50.716;7.086;2022-12-11T05:26:49;99873.00;;;1.79;100.00
32131;BME280;18639;50.716;7.086;2022-12-11T05:29:15;99862.19;;;1.72;100.00
32131;BME280;18639;50.716;7.086;2022-12-11T05:31:40;99864.81;;;1.71;100.00
32131;BME280;18639;50.716;7.086;2022-12-11T05:34:05;99842.28;;;1.60;100.00
32131;BME280;18639;50.716;7.086;2022-12-11T05:36:32;99874.50;;;1.84;100.00
32131;BME280;18639;50.716;7.086;2022-12-11T05:38:59;99867.25;;;1.74;100.00
32131;BME280;18639;50.716;7.086;2022-12-11T05:41:27;99884.69;;;1.84;100.00
32131;BME280;18639;50.716;7.086;2022-12-11T05:43:52;99879.59;;;1.84;100.00
32131;BME280;18639;50.716;7.086;2022-12-11T05:46:24;99871.16;;;1.82;100.00
32131;BME280;18639;50.716;7.086;2022-12-11T05:48:52;99843.91;;;1.61;100.00
32131;BME280;18639;50.716;7.086;2022-12-11T05:51:18;99846.47;;;1.61;100.00
32131;BME280;18639;50.716;7.086;2022-12-11T05:53:45;99880.59;;;1.80;100.00
32131;BME280;18639;50.716;7.086;2022-12-11T05:56:13;99870.66;;;1.73;100.00
32131;BME280;18639;50.716;7.086;2022-12-11T05:58:40;99826.72;;;1.44;100.00
32131;BME280;18639;50.716;7.086;2022-12-11T06:01:17;99890.00;;;1.78;100.00
32131;BME280;18639;50.716;7.086;2022-12-11T06:03:43;99885.72;;;1.79;100.00
32131;BME280;18639;50.716;7.086;2022-12-11T06:06:09;99880.59;;;1.80;100.00
32131;BME280;18639;50.716;7.086;2022-12-11T06:08:34;99882.31;;;1.80;100.00
32131;BME280;18639;50.716;7.086;2022-12-11T06:11:02;99872.94;;;1.80;100.00
32131;BME280;18639;50.716;7.086;2022-12-11T06:13:28;99883.97;;;1.81;100.00
32131;BME280;18639;50.716;7.086;2022-12-11T06:15:53;99886.44;;;1.82;100.00
32131;BME280;18639;50.716;7.086;2022-12-11T06:18:19;99849.00;;;1.61;100.00
32131;BME280;18639;50.716;7.086;2022-12-11T06:20:44;99844.53;;;1.67;100.00
32131;BME280;18639;50.716;7.086;2022-12-11T06:23:09;99830.09;;;1.45;100.00
32131;BME280;18639;50.716;7.086;2022-12-11T06:25:37;99872.06;;;1.81;100.00
32131;BME280;18639;50.716;7.086;2022-12-11T06:28:02;99855.44;;;1.71;100.00
32131;BME280;18639;50.716;7.086;2022-12-11T06:30:27;99877.22;;;1.80;100.00
32131;BME280;18639;50.716;7.086;2022-12-11T06:32:53;99857.75;;;1.77;100.00
32131;BME280;18639;50.716;7.086;2022-12-11T06:35:18;99864.53;;;1.78;100.00
32131;BME280;18639;50.716;7.086;2022-12-11T06:37:43;99861.97;;;1.78;100.00
32131;BME280;18639;50.716;7.086;2022-12-11T06:40:09;99869.41;;;1.84;100.00
32131;BME280;18639;50.716;7.086;2022-12-11T06:42:36;99837.94;;;1.62;100.00
32131;BME280;18639;50.716;7.086;2022-12-11T06:45:02;99861.94;;;1.80;100.00
32131;BME280;18639;50.716;7.086;2022-12-11T06:47:28;99869.53;;;1.81;100.00
32131;BME280;18639;50.716;7.086;2022-12-11T06:49:55;99869.53;;;1.81;100.00
32131;BME280;18639;50.716;7.086;2022-12-11T06:52:21;99856.44;;;1.67;100.00
32131;BME280;18639;50.716;7.086;2022-12-11T06:54:47;99862.09;;;1.75;100.00
32131;BME280;18639;50.716;7.086;2022-12-11T06:57:12;99866.41;;;1.73;100.00
32131;BME280;18639;50.716;7.086;2022-12-11T06:59:38;99859.88;;;1.66;100.00
32131;BME280;18639;50.716;7.086;2022-12-11T07:02:03;99873.03;;;1.77;100.00
32131;BME280;18639;50.716;7.086;2022-12-11T07:04:29;99863.31;;;1.65;100.00
32131;BME280;18639;50.716;7.086;2022-12-11T07:06:55;99858.38;;;1.60;100.00
32131;BME280;18639;50.716;7.086;2022-12-11T07:09:20;99831.50;;;1.28;100.00
32131;BME280;18639;50.716;7.086;2022-12-11T07:11:49;99834.78;;;1.32;100.00
32131;BME280;18639;50.716;7.086;2022-12-11T07:14:14;99890.31;;;1.69;100.00
32131;BME280;18639;50.716;7.086;2022-12-11T07:16:40;99888.53;;;1.71;100.00
32131;BME280;18639;50.716;7.086;2022-12-11T07:19:05;99831.38;;;1.33;100.00
32131;BME280;18639;50.716;7.086;2022-12-11T07:21:31;99838.56;;;1.45;100.00
32131;BME280;18639;50.716;7.086;2022-12-11T07:23:56;99821.56;;;1.22;100.00
32131;BME280;18639;50.716;7.086;2022-12-11T07:26:21;99889.44;;;1.70;100.00
32131;BME280;18639;50.716;7.086;2022-12-11T07:28:47;99893.75;;;1.68;100.00
32131;BME280;18639;50.716;7.086;2022-12-11T07:31:15;99792.34;;;1.09;100.00
32131;BME280;18639;50.716;7.086;2022-12-11T07:33:41;99877.19;;;1.56;100.00
32131;BME280;18639;50.716;7.086;2022-12-11T07:36:08;99800.00;;;1.08;100.00
32131;BME280;18639;50.716;7.086;2022-12-11T07:38:34;99882.91;;;1.63;100.00
32131;BME280;18639;50.716;7.086;2022-12-11T07:41:01;99871.16;;;1.59;100.00
32131;BME280;18639;50.716;7.086;2022-12-11T07:43:26;99865.28;;;1.57;100.00
32131;BME280;18639;50.716;7.086;2022-12-11T07:45:51;99868.63;;;1.59;100.00
32131;BME280;18639;50.716;7.086;2022-12-11T07:48:17;99810.41;;;1.26;100.00
32131;BME280;18639;50.716;7.086;2022-12-11T07:50:42;99825.13;;;1.42;100.00
32131;BME280;18639;50.716;7.086;2022-12-11T07:53:08;99875.13;;;1.66;100.00
32131;BME280;18639;50.716;7.086;2022-12-11T07:55:33;99881.91;;;1.67;100.00
32131;BME280;18639;50.716;7.086;2022-12-11T07:57:59;99822.00;;;1.34;100.00
32131;BME280;18639;50.716;7.086;2022-12-11T08:00:26;99880.00;;;1.72;100.00
32131;BME280;18639;50.716;7.086;2022-12-11T08:02:51;99894.41;;;1.73;100.00
32131;BME280;18639;50.716;7.086;2022-12-11T08:05:17;99879.34;;;1.67;100.00
32131;BME280;18639;50.716;7.086;2022-12-11T08:07:42;99889.94;;;1.80;100.00
32131;BME280;18639;50.716;7.086;2022-12-11T08:10:08;99895.97;;;1.77;100.00
32131;BME280;18639;50.716;7.086;2022-12-11T08:12:33;99879.84;;;1.77;100.00
32131;BME280;18639;50.716;7.086;2022-12-11T08:15:00;99823.56;;;1.38;100.00
32131;BME280;18639;50.716;7.086;2022-12-11T08:17:26;99871.72;;;1.67;100.00
32131;BME280;18639;50.716;7.086;2022-12-11T08:19:51;99891.78;;;1.76;100.00
32131;BME280;18639;50.716;7.086;2022-12-11T08:22:16;99857.50;;;1.61;100.00
32131;BME280;18639;50.716;7.086;2022-12-11T08:24:43;99860.59;;;1.69;100.00
32131;BME280;18639;50.716;7.086;2022-12-11T08:27:08;99797.56;;;1.30;100.00
32131;BME280;18639;50.716;7.086;2022-12-11T08:29:34;99806.13;;;1.27;100.00
32131;BME280;18639;50.716;7.086;2022-12-11T08:31:59;99776.75;;;1.18;100.00
32131;BME280;18639;50.716;7.086;2022-12-11T08:34:24;99789.81;;;1.33;100.00
32131;BME280;18639;50.716;7.086;2022-12-11T08:36:50;99827.50;;;1.46;100.00
32131;BME280;18639;50.716;7.086;2022-12-11T08:39:15;99818.47;;;1.38;100.00
32131;BME280;18639;50.716;7.086;2022-12-11T08:41:40;99838.56;;;1.45;100.00
32131;BME280;18639;50.716;7.086;2022-12-11T08:44:10;99861.69;;;1.62;100.00
32131;BME280;18639;50.716;7.086;2022-12-11T08:46:36;99867.78;;;1.58;100.00
32131;BME280;18639;50.716;7.086;2022-12-11T08:49:01;99815.16;;;1.36;100.00
32131;BME280;18639;50.716;7.086;2022-12-11T08:51:29;99880.59;;;1.80;100.00
32131;BME280;18639;50.716;7.086;2022-12-11T08:53:58;99886.28;;;1.87;100.00
32131;BME280;18639;50.716;7.086;2022-12-11T08:56:26;99881.19;;;1.87;100.00
32131;BME280;18639;50.716;7.086;2022-12-11T08:58:51;99882.91;;;1.86;100.00
32131;BME280;18639;50.716;7.086;2022-12-11T09:01:24;99880.19;;;1.91;100.00
32131;BME280;18639;50.716;7.086;2022-12-11T09:04:04;99878.41;;;1.93;100.00
32131;BME280;18639;50.716;7.086;2022-12-11T09:06:32;99870.53;;;1.99;100.00
32131;BME280;18639;50.716;7.086;2022-12-11T09:08:59;99829.88;;;1.74;100.00
32131;BME280;18639;50.716;7.086;2022-12-11T09:11:31;99880.47;;;2.06;100.00
32131;BME280;18639;50.716;7.086;2022-12-11T09:13:57;99861.09;;;2.02;100.00
32131;BME280;18639;50.716;7.086;2022-12-11T09:16:23;99875.22;;;2.09;100.00
32131;BME280;18639;50.716;7.086;2022-12-11T09:18:50;99856.88;;;2.01;100.00
32131;BME280;18639;50.716;7.086;2022-12-11T09:21:18;99872.63;;;2.11;100.00
32131;BME280;18639;50.716;7.086;2022-12-11T09:23:44;99865.81;;;2.11;100.00
32131;BME280;18639;50.716;7.086;2022-12-11T09:26:12;99879.75;;;2.25;100.00
32131;BME280;18639;50.716;7.086;2022-12-11T09:28:38;99871.56;;;2.17;100.00
32131;BME280;18639;50.716;7.086;2022-12-11T09:31:10;99883.13;;;2.25;100.00
32131;BME280;18639;50.716;7.086;2022-12-11T09:33:36;99880.06;;;2.17;100.00
32131;BME280;18639;50.716;7.086;2022-12-11T09:36:03;99883.66;;;2.11;100.00
32131;BME280;18639;50.716;7.086;2022-12-11T09:38:30;99833.28;;;1.96;100.00
32131;BME280;18639;50.716;7.086;2022-12-11T09:40:56;99872.25;;;1.98;100.00
32131;BME280;18639;50.716;7.086;2022-12-11T09:43:32;99875.00;;;2.16;100.00
32131;BME280;18639;50.716;7.086;2022-12-11T09:46:04;99846.78;;;1.98;100.00
32131;BME280;18639;50.716;7.086;2022-12-11T09:48:31;99863.91;;;1.95;100.00
32131;BME280;18639;50.716;7.086;2022-12-11T09:51:02;99838.59;;;1.90;100.00
32131;BME280;18639;50.716;7.086;2022-12-11T09:53:33;99827.22;;;1.99;100.00
32131;BME280;18639;50.716;7.086;2022-12-11T09:59:08;99868.44;;;2.32;100.00
32131;BME280;18639;50.716;7.086;2022-12-11T10:07:47;99850.31;;;2.39;100.00
32131;BME280;18639;50.716;7.086;2022-12-11T10:13:00;99856.56;;;2.52;100.00
32131;BME280;18639;50.716;7.086;2022-12-11T10:15:39;99851.28;;;2.57;100.00
32131;BME280;18639;50.716;7.086;2022-12-11T10:18:12;99855.91;;;2.69;100.00
32131;BME280;18639;50.716;7.086;2022-12-11T10:20:40;99791.09;;;2.33;100.00
32131;BME280;18639;50.716;7.086;2022-12-11T10:23:09;99852.03;;;2.81;100.00
32131;BME280;18639;50.716;7.086;2022-12-11T10:25:52;99851.84;;;2.85;100.00
32131;BME280;18639;50.716;7.086;2022-12-11T10:28:19;99850.75;;;2.91;100.00
32131;BME280;18639;50.716;7.086;2022-12-11T10:31:03;99839.13;;;2.84;100.00
32131;BME280;18639;50.716;7.086;2022-12-11T10:33:56;99845.00;;;2.86;100.00
32131;BME280;18639;50.716;7.086;2022-12-11T10:36:37;99800.28;;;2.57;100.00
32131;BME280;18639;50.716;7.086;2022-12-11T10:39:20;99830.72;;;2.82;100.00
32131;BME280;18639;50.716;7.086;2022-12-11T10:41:48;99839.66;;;2.92;100.00
32131;BME280;18639;50.716;7.086;2022-12-11T10:47:09;99823.22;;;2.99;100.00
32131;BME280;18639;50.716;7.086;2022-12-11T10:49:37;99808.84;;;2.96;100.00
32131;BME280;18639;50.716;7.086;2022-12-11T10:52:19;99814.78;;;2.97;100.00
32131;BME280;18639;50.716;7.086;2022-12-11T10:54:55;99821.09;;;2.88;100.00
32131;BME280;18639;50.716;7.086;2022-12-11T10:57:31;99815.28;;;2.85;100.00
32131;BME280;18639;50.716;7.086;2022-12-11T10:59:57;99814.41;;;2.86;100.00
32131;BME280;18639;50.716;7.086;2022-12-11T11:04:56;99782.06;;;2.86;100.00
32131;BME280;18639;50.716;7.086;2022-12-11T11:07:25;99810.09;;;3.07;100.00
32131;BME280;18639;50.716;7.086;2022-12-11T11:10:23;99777.22;;;2.80;100.00
32131;BME280;18639;50.716;7.086;2022-12-11T11:12:48;99805.53;;;3.15;100.00
32131;BME280;18639;50.716;7.086;2022-12-11T11:15:21;99792.19;;;3.08;100.00
32131;BME280;18639;50.716;7.086;2022-12-11T11:17:49;99802.81;;;3.18;100.00
32131;BME280;18639;50.716;7.086;2022-12-11T11:20:18;99790.66;;;3.04;100.00
32131;BME280;18639;50.716;7.086;2022-12-11T11:22:47;99812.72;;;3.25;100.00
32131;BME280;18639;50.716;7.086;2022-12-11T11:25:17;99800.38;;;3.35;100.00
32131;BME280;18639;50.716;7.086;2022-12-11T11:27:48;99772.00;;;3.22;100.00
32131;BME280;18639;50.716;7.086;2022-12-11T11:30:29;99780.22;;;3.48;100.00
32131;BME280;18639;50.716;7.086;2022-12-11T11:33:02;99771.88;;;3.44;100.00
32131;BME280;18639;50.716;7.086;2022-12-11T11:35:30;99781.59;;;3.55;100.00
32131;BME280;18639;50.716;7.086;2022-12-11T11:38:16;99777.47;;;3.52;100.00
32131;BME280;18639;50.716;7.086;2022-12-11T11:40:57;99781.03;;;3.48;100.00
32131;BME280;18639;50.716;7.086;2022-12-11T11:46:03;99732.50;;;3.11;100.00
32131;BME280;18639;50.716;7.086;2022-12-11T11:51:20;99762.31;;;3.10;100.00
32131;BME280;18639;50.716;7.086;2022-12-11T11:53:49;99748.75;;;2.89;100.00
32131;BME280;18639;50.716;7.086;2022-12-11T11:56:21;99771.34;;;2.99;100.00
32131;BME280;18639;50.716;7.086;2022-12-11T12:01:55;99759.72;;;2.91;100.00
32131;BME280;18639;50.716;7.086;2022-12-11T12:04:21;99727.28;;;2.75;100.00
32131;BME280;18639;50.716;7.086;2022-12-11T12:07:28;99747.75;;;2.93;100.00
32131;BME280;18639;50.716;7.086;2022-12-11T12:21:16;99771.56;;;3.13;100.00
32131;BME280;18639;50.716;7.086;2022-12-11T12:26:28;99777.78;;;3.26;100.00
32131;BME280;18639;50.716;7.086;2022-12-11T12:29:14;99776.53;;;3.16;100.00
32131;BME280;18639;50.716;7.086;2022-12-11T12:31:50;99777.31;;;3.18;100.00
32131;BME280;18639;50.716;7.086;2022-12-11T12:34:30;99769.38;;;3.24;100.00
32131;BME280;18639;50.716;7.086;2022-12-11T12:37:04;99767.56;;;3.26;100.00
32131;BME280;18639;50.716;7.086;2022-12-11T12:42:29;99760.06;;;3.23;100.00
32131;BME280;18639;50.716;7.086;2022-12-11T12:44:59;99763.38;;;3.25;99.48
32131;BME280;18639;50.716;7.086;2022-12-11T12:47:26;99728.03;;;2.97;100.00
32131;BME280;18639;50.716;7.086;2022-12-11T12:49:54;99756.00;;;3.19;100.00
32131;BME280;18639;50.716;7.086;2022-12-11T12:52:31;99753.56;;;3.16;99.49
32131;BME280;18639;50.716;7.086;2022-12-11T12:55:02;99763.09;;;3.12;100.00
32131;BME280;18639;50.716;7.086;2022-12-11T12:57:43;99767.25;;;3.15;99.78
32131;BME280;18639;50.716;7.086;2022-12-11T13:00:09;99759.59;;;3.15;99.65
32131;BME280;18639;50.716;7.086;2022-12-11T13:02:57;99757.66;;;3.20;99.98
32131;BME280;18639;50.716;7.086;2022-12-11T13:05:26;99738.97;;;3.19;99.46
32131;BME280;18639;50.716;7.086;2022-12-11T13:07:55;99758.13;;;3.28;100.00
32131;BME280;18639;50.716;7.086;2022-12-11T13:12:47;99751.50;;;3.43;100.00
32131;BME280;18639;50.716;7.086;2022-12-11T13:15:34;99727.38;;;3.31;100.00
32131;BME280;18639;50.716;7.086;2022-12-11T13:18:02;99733.22;;;3.33;100.00
32131;BME280;18639;50.716;7.086;2022-12-11T13:20:32;99747.22;;;3.43;100.00
32131;BME280;18639;50.716;7.086;2022-12-11T13:25:31;99743.78;;;3.44;99.53
32131;BME280;18639;50.716;7.086;2022-12-11T13:28:18;99745.56;;;3.42;99.08
32131;BME280;18639;50.716;7.086;2022-12-11T13:30:55;99749.16;;;3.38;98.54
32131;BME280;18639;50.716;7.086;2022-12-11T13:33:21;99743.22;;;3.19;98.22
32131;BME280;18639;50.716;7.086;2022-12-11T13:35:47;99739.78;;;3.20;98.60
32131;BME280;18639;50.716;7.086;2022-12-11T13:38:18;99748.53;;;3.14;98.35
32131;BME280;18639;50.716;7.086;2022-12-11T13:40:50;99748.88;;;3.07;99.19
32131;BME280;18639;50.716;7.086;2022-12-11T13:43:28;99753.19;;;3.05;100.00
32131;BME280;18639;50.716;7.086;2022-12-11T13:45:58;99758.06;;;2.90;100.00
32131;BME280;18639;50.716;7.086;2022-12-11T13:48:28;99764.84;;;2.91;100.00
32131;BME280;18639;50.716;7.086;2022-12-11T13:50:58;99761.31;;;2.94;100.00
32131;BME280;18639;50.716;7.086;2022-12-11T13:53:24;99750.56;;;2.87;100.00
32131;BME280;18639;50.716;7.086;2022-12-11T13:56:00;99763.06;;;2.93;100.00
32131;BME280;18639;50.716;7.086;2022-12-11T13:58:27;99755.31;;;2.95;100.00